Time,TemperatureF,DewpointF,PressureIn,WindDirection,WindDirectionDegrees,WindSpeedMPH,WindSpeedGustMPH,Humidity,HourlyPrecipIn,Conditions,Clouds,dailyrainin,SoftwareType,DateUTC
2013-04-26 00:03:00,40.0,37.0,29.50,North,0,0.0,0.0,90,0.00,,,0.00,,2013-04-26 04:03:00,
2013-04-26 00:12:00,40.0,37.0,29.50,North,0,0.0,0.0,90,0.00,,,0.00,,2013-04-26 04:12:00,
2013-04-26 00:23:00,39.0,37.0,29.50,North,0,0.0,0.0,94,0.00,,,0.00,,2013-04-26 04:23:00,
2013-04-26 00:32:00,39.0,37.0,29.50,North,0,0.0,0.0,94,0.00,,,0.00,,2013-04-26 04:32:00,
2013-04-26 00:43:00,39.0,37.0,29.50,North,0,0.0,0.0,94,0.00,,,0.00,,2013-04-26 04:43:00,
2013-04-26 00:53:00,39.0,37.0,29.50,North,0,0.0,0.0,94,0.00,,,0.00,,2013-04-26 04:53:00,
2013-04-26 01:02:00,38.0,37.0,29.50,North,0,0.0,0.0,98,0.00,,,0.00,,2013-04-26 05:02:00,
2013-04-26 01:13:00,38.0,37.0,29.50,North,0,0.0,0.0,98,0.00,,,0.00,,2013-04-26 05:13:00,
2013-04-26 01:22:00,38.0,37.0,29.50,North,0,0.0,0.0,98,0.00,,,0.00,,2013-04-26 05:22:00,
2013-04-26 01:32:00,38.0,37.0,29.50,North,0,0.0,0.0,98,0.00,,,0.00,,2013-04-26 05:32:00,
2013-04-26 01:42:00,38.0,37.0,29.50,North,0,0.0,0.0,98,0.00,,,0.00,,2013-04-26 05:42:00,
2013-04-26 01:52:00,38.0,37.0,29.50,North,0,0.0,0.0,98,0.00,,,0.00,,2013-04-26 05:52:00,
2013-04-26 02:02:00,36.0,35.0,29.50,North,0,0.0,0.0,98,0.00,,,0.00,,2013-04-26 06:02:00,
2013-04-26 02:12:00,36.0,35.0,29.50,North,0,0.0,0.0,98,0.00,,,0.00,,2013-04-26 06:12:00,
2013-04-26 02:22:00,37.0,36.0,29.50,North,0,0.0,0.0,98,0.00,,,0.00,,2013-04-26 06:22:00,
2013-04-26 02:32:00,37.0,36.0,29.50,North,0,0.0,0.0,98,0.00,,,0.00,,2013-04-26 06:32:00,
2013-04-26 02:42:00,37.0,36.0,29.50,North,0,0.0,0.0,98,0.00,,,0.00,,2013-04-26 06:42:00,
2013-04-26 02:52:00,36.0,35.0,29.50,North,0,0.0,0.0,98,0.00,,,0.00,,2013-04-26 06:52:00,
2013-04-26 03:02:00,36.0,35.0,29.50,North,0,0.0,0.0,98,0.00,,,0.00,,2013-04-26 07:02:00,
2013-04-26 03:11:00,36.0,35.0,29.50,North,0,0.0,0.0,98,0.00,,,0.00,,2013-04-26 07:11:00,
2013-04-26 03:22:00,35.0,34.0,29.50,North,0,0.0,0.0,98,0.00,,,0.00,,2013-04-26 07:22:00,
2013-04-26 03:32:00,35.0,34.0,29.50,North,0,0.0,0.0,98,0.00,,,0.00,,2013-04-26 07:32:00,
2013-04-26 03:42:00,35.0,34.0,29.50,North,0,0.0,0.0,98,0.00,,,0.00,,2013-04-26 07:42:00,
2013-04-26 03:52:00,35.0,34.0,29.50,North,0,0.0,0.0,98,0.00,,,0.00,,2013-04-26 07:52:00,
2013-04-26 04:03:00,35.0,34.0,29.50,North,0,0.0,0.0,98,0.00,,,0.00,,2013-04-26 08:03:00,
2013-04-26 04:11:00,35.0,34.0,29.50,North,0,0.0,0.0,98,0.00,,,0.00,,2013-04-26 08:11:00,
2013-04-26 04:22:00,35.0,34.0,29.50,North,0,0.0,0.0,98,0.00,,,0.00,,2013-04-26 08:22:00,
2013-04-26 04:32:00,35.0,34.0,29.50,North,0,0.0,0.0,98,0.00,,,0.00,,2013-04-26 08:32:00,
2013-04-26 04:41:00,34.0,34.0,29.50,North,0,0.0,0.0,98,0.00,,,0.00,,2013-04-26 08:41:00,
2013-04-26 04:42:00,35.0,34.0,29.50,North,0,0.0,0.0,98,0.00,,,0.00,,2013-04-26 08:42:00,
2013-04-26 04:52:00,34.0,34.0,29.50,North,0,0.0,0.0,98,0.00,,,0.00,,2013-04-26 08:52:00,
2013-04-26 05:02:00,34.0,34.0,29.50,North,0,0.0,0.0,98,0.00,,,0.00,,2013-04-26 09:02:00,
2013-04-26 05:11:00,34.0,34.0,29.50,North,0,0.0,0.0,98,0.00,,,0.00,,2013-04-26 09:11:00,
2013-04-26 05:22:00,34.0,34.0,29.50,North,0,0.0,0.0,98,0.00,,,0.00,,2013-04-26 09:22:00,
2013-04-26 05:33:00,34.0,34.0,29.50,North,0,0.0,0.0,98,0.00,,,0.00,,2013-04-26 09:33:00,
2013-04-26 05:53:00,33.0,32.0,29.50,North,0,0.0,0.0,98,0.00,,,0.00,,2013-04-26 09:53:00,
2013-04-26 06:03:00,33.0,32.0,29.50,North,0,0.0,0.0,98,0.00,,,0.00,,2013-04-26 10:03:00,
2013-04-26 06:12:00,33.0,32.0,29.50,North,0,0.0,0.0,98,0.00,,,0.00,,2013-04-26 10:12:00,
2013-04-26 06:23:00,33.0,32.0,29.50,North,0,0.0,0.0,98,0.00,,,0.00,,2013-04-26 10:23:00,
2013-04-26 06:33:00,33.0,32.0,29.53,North,0,0.0,0.0,98,0.00,,,0.00,,2013-04-26 10:33:00,
2013-04-26 06:42:00,33.0,32.0,29.53,North,0,0.0,0.0,98,0.00,,,0.00,,2013-04-26 10:42:00,
2013-04-26 06:52:00,33.0,32.0,29.53,North,0,0.0,0.0,98,0.00,,,0.00,,2013-04-26 10:52:00,
2013-04-26 07:02:00,33.0,32.0,29.53,North,0,0.0,0.0,98,0.00,,,0.00,,2013-04-26 11:02:00,
2013-04-26 07:11:00,33.0,32.0,29.53,North,0,0.0,0.0,98,0.00,,,0.00,,2013-04-26 11:11:00,
2013-04-26 07:22:00,33.0,32.0,29.53,North,0,0.0,0.0,98,0.00,,,0.00,,2013-04-26 11:22:00,
2013-04-26 07:32:00,33.0,32.0,29.53,North,0,0.0,0.0,98,0.00,,,0.00,,2013-04-26 11:32:00,
2013-04-26 07:42:00,33.0,32.0,29.53,North,0,0.0,0.0,98,0.00,,,0.00,,2013-04-26 11:42:00,
2013-04-26 07:52:00,35.0,34.0,29.53,North,0,0.0,4.0,98,0.00,,,0.00,,2013-04-26 11:52:00,
2013-04-26 08:02:00,36.0,35.0,29.53,North,0,0.0,0.0,98,0.00,,,0.00,,2013-04-26 12:02:00,
2013-04-26 08:12:00,36.0,35.0,29.53,North,0,0.0,0.0,98,0.00,,,0.00,,2013-04-26 12:12:00,
2013-04-26 08:22:00,40.0,39.0,29.53,North,0,0.0,0.0,98,0.00,,,0.00,,2013-04-26 12:22:00,
2013-04-26 08:32:00,47.0,46.0,29.53,North,0,0.0,0.0,98,0.00,,,0.00,,2013-04-26 12:32:00,
2013-04-26 08:42:00,47.0,46.0,29.53,North,0,0.0,0.0,98,0.00,,,0.00,,2013-04-26 12:42:00,
2013-04-26 08:52:00,47.0,46.0,29.53,North,0,0.0,0.0,98,0.00,,,0.00,,2013-04-26 12:52:00,
2013-04-26 09:01:00,53.0,41.0,29.53,North,0,0.0,0.0,64,0.00,,,0.00,,2013-04-26 13:01:00,
2013-04-26 09:12:00,53.0,41.0,29.53,North,0,0.0,0.0,64,0.00,,,0.00,,2013-04-26 13:12:00,
2013-04-26 09:22:00,60.0,38.0,29.53,North,0,0.0,0.0,44,0.00,,,0.00,,2013-04-26 13:22:00,
2013-04-26 09:32:00,67.0,43.0,29.53,North,0,0.0,0.0,42,0.00,,,0.00,,2013-04-26 13:32:00,
2013-04-26 09:42:00,67.0,43.0,29.53,North,0,0.0,0.0,42,0.00,,,0.00,,2013-04-26 13:42:00,
2013-04-26 09:52:00,64.0,38.0,29.53,North,0,0.0,0.0,38,0.00,,,0.00,,2013-04-26 13:52:00,
2013-04-26 10:01:00,64.0,38.0,29.53,North,0,0.0,0.0,38,0.00,,,0.00,,2013-04-26 14:01:00,
2013-04-26 10:11:00,64.0,38.0,29.53,North,0,0.0,0.0,38,0.00,,,0.00,,2013-04-26 14:11:00,
2013-04-26 10:21:00,64.0,36.0,29.53,West,270,4.0,7.0,35,0.00,,,0.00,,2013-04-26 14:21:00,
2013-04-26 10:32:00,70.0,39.0,29.53,West,272,3.0,5.0,32,0.00,,,0.00,,2013-04-26 14:32:00,
2013-04-26 10:42:00,70.0,39.0,29.53,West,272,3.0,5.0,32,0.00,,,0.00,,2013-04-26 14:42:00,
2013-04-26 10:52:00,69.0,36.0,29.53,WNW,282,4.0,8.0,30,0.00,,,0.00,,2013-04-26 14:52:00,
2013-04-26 11:01:00,65.0,36.0,29.53,North,0,0.0,7.0,34,0.00,,,0.00,,2013-04-26 15:01:00,
2013-04-26 11:12:00,65.0,36.0,29.53,North,0,0.0,7.0,34,0.00,,,0.00,,2013-04-26 15:12:00,
2013-04-26 11:22:00,64.0,35.0,29.53,North,0,0.0,8.0,34,0.00,,,0.00,,2013-04-26 15:22:00,
2013-04-26 11:33:00,63.0,34.0,29.53,WNW,285,5.0,9.0,34,0.00,,,0.00,,2013-04-26 15:33:00,
2013-04-26 11:43:00,63.0,34.0,29.53,WNW,285,5.0,9.0,34,0.00,,,0.00,,2013-04-26 15:43:00,
2013-04-26 11:53:00,63.0,34.0,29.53,WNW,290,4.0,9.0,34,0.00,,,0.00,,2013-04-26 15:53:00,
2013-04-26 12:03:00,64.0,35.0,29.53,North,0,0.0,5.0,34,0.00,,,0.00,,2013-04-26 16:03:00,
2013-04-26 12:13:00,64.0,35.0,29.53,North,0,0.0,5.0,34,0.00,,,0.00,,2013-04-26 16:13:00,
2013-04-26 12:23:00,67.0,37.0,29.53,NW,309,5.0,7.0,33,0.00,,,0.00,,2013-04-26 16:23:00,
2013-04-26 12:33:00,67.0,37.0,29.53,NW,309,5.0,7.0,33,0.00,,,0.00,,2013-04-26 16:33:00,
2013-04-26 12:42:00,67.0,37.0,29.53,NW,309,5.0,7.0,33,0.00,,,0.00,,2013-04-26 16:42:00,
2013-04-26 12:53:00,70.0,39.0,29.53,North,0,0.0,5.0,32,0.00,,,0.00,,2013-04-26 16:53:00,
2013-04-26 13:02:00,70.0,39.0,29.53,East,80,3.0,6.0,32,0.00,,,0.00,,2013-04-26 17:02:00,
2013-04-26 13:12:00,70.0,39.0,29.53,East,80,3.0,6.0,32,0.00,,,0.00,,2013-04-26 17:12:00,
2013-04-26 13:22:00,70.0,39.0,29.53,East,80,3.0,6.0,32,0.00,,,0.00,,2013-04-26 17:22:00,
2013-04-26 13:32:00,71.0,40.0,29.53,East,100,7.0,7.0,32,0.00,,,0.00,,2013-04-26 17:32:00,
2013-04-26 13:42:00,71.0,40.0,29.53,East,100,7.0,7.0,32,0.00,,,0.00,,2013-04-26 17:42:00,
2013-04-26 13:52:00,72.0,37.0,29.53,ENE,75,3.0,7.0,28,0.00,,,0.00,,2013-04-26 17:52:00,
2013-04-26 14:02:00,72.0,37.0,29.53,ENE,75,3.0,7.0,28,0.00,,,0.00,,2013-04-26 18:02:00,
2013-04-26 14:12:00,72.0,37.0,29.53,ENE,75,3.0,7.0,28,0.00,,,0.00,,2013-04-26 18:12:00,
2013-04-26 14:22:00,72.0,39.0,29.50,North,0,0.0,6.0,30,0.00,,,0.00,,2013-04-26 18:22:00,
2013-04-26 14:33:00,71.0,39.0,29.50,East,80,4.0,5.0,31,0.00,,,0.00,,2013-04-26 18:33:00,
2013-04-26 14:42:00,71.0,39.0,29.50,East,80,4.0,5.0,31,0.00,,,0.00,,2013-04-26 18:42:00,
2013-04-26 14:52:00,72.0,40.0,29.50,ENE,75,4.0,5.0,31,0.00,,,0.00,,2013-04-26 18:52:00,
2013-04-26 15:02:00,72.0,40.0,29.50,ENE,75,4.0,5.0,31,0.00,,,0.00,,2013-04-26 19:02:00,
2013-04-26 15:12:00,72.0,40.0,29.50,ENE,75,4.0,5.0,31,0.00,,,0.00,,2013-04-26 19:12:00,
2013-04-26 15:22:00,71.0,36.0,29.47,North,0,0.0,0.0,28,0.00,,,0.00,,2013-04-26 19:22:00,
2013-04-26 15:32:00,71.0,37.0,29.47,WSW,257,3.0,4.0,29,0.00,,,0.00,,2013-04-26 19:32:00,
2013-04-26 15:42:00,71.0,37.0,29.47,WSW,257,3.0,4.0,29,0.00,,,0.00,,2013-04-26 19:42:00,
2013-04-26 15:52:00,70.0,36.0,29.47,North,0,0.0,0.0,29,0.00,,,0.00,,2013-04-26 19:52:00,
2013-04-26 16:02:00,70.0,36.0,29.47,North,0,0.0,5.0,29,0.00,,,0.00,,2013-04-26 20:02:00,
2013-04-26 16:11:00,70.0,36.0,29.47,North,0,0.0,5.0,29,0.00,,,0.00,,2013-04-26 20:11:00,
2013-04-26 16:22:00,70.0,35.0,29.47,North,2,3.0,5.0,28,0.00,,,0.00,,2013-04-26 20:22:00,
2013-04-26 16:32:00,71.0,38.0,29.44,North,0,0.0,4.0,30,0.00,,,0.00,,2013-04-26 20:32:00,
2013-04-26 16:42:00,71.0,38.0,29.44,North,0,0.0,4.0,30,0.00,,,0.00,,2013-04-26 20:42:00,
2013-04-26 16:52:00,71.0,38.0,29.44,North,0,0.0,4.0,30,0.00,,,0.00,,2013-04-26 20:52:00,
2013-04-26 17:02:00,70.0,37.0,29.41,ENE,60,3.0,4.0,30,0.00,,,0.00,,2013-04-26 21:02:00,
2013-04-26 17:11:00,70.0,37.0,29.41,ENE,60,3.0,4.0,30,0.00,,,0.00,,2013-04-26 21:11:00,
2013-04-26 17:22:00,70.0,37.0,29.41,North,0,0.0,4.0,30,0.00,,,0.00,,2013-04-26 21:22:00,
2013-04-26 17:33:00,70.0,37.0,29.41,North,0,0.0,4.0,30,0.00,,,0.00,,2013-04-26 21:33:00,
2013-04-26 17:42:00,70.0,37.0,29.41,North,0,0.0,4.0,30,0.00,,,0.00,,2013-04-26 21:42:00,
2013-04-26 17:53:00,68.0,35.0,29.41,North,0,0.0,4.0,30,0.00,,,0.00,,2013-04-26 21:53:00,
2013-04-26 18:03:00,68.0,35.0,29.41,North,0,0.0,4.0,30,0.00,,,0.00,,2013-04-26 22:03:00,
2013-04-26 18:13:00,68.0,35.0,29.41,North,0,0.0,4.0,30,0.00,,,0.00,,2013-04-26 22:13:00,
2013-04-26 18:23:00,68.0,35.0,29.41,North,0,0.0,4.0,30,0.00,,,0.00,,2013-04-26 22:23:00,
2013-04-26 18:52:00,65.0,36.0,29.47,SW,222,3.0,6.0,34,0.00,,,0.00,,2013-04-26 22:52:00,
2013-04-26 19:02:00,64.0,35.0,29.47,North,0,0.0,0.0,34,0.00,,,0.00,,2013-04-26 23:02:00,
2013-04-26 19:12:00,64.0,35.0,29.47,North,0,0.0,0.0,34,0.00,,,0.00,,2013-04-26 23:12:00,
2013-04-26 19:21:00,63.0,36.0,29.50,SSE,154,3.0,5.0,36,0.00,,,0.00,,2013-04-26 23:21:00,
2013-04-26 19:32:00,63.0,36.0,29.50,North,0,0.0,5.0,36,0.00,,,0.00,,2013-04-26 23:32:00,
2013-04-26 19:42:00,63.0,36.0,29.50,North,0,0.0,5.0,36,0.00,,,0.00,,2013-04-26 23:42:00,
2013-04-26 19:52:00,62.0,35.0,29.50,North,0,0.0,5.0,37,0.00,,,0.00,,2013-04-26 23:52:00,
2013-04-26 20:01:00,61.0,35.0,29.50,North,0,0.0,0.0,38,0.00,,,0.00,,2013-04-27 00:01:00,
2013-04-26 20:11:00,61.0,35.0,29.50,North,0,0.0,0.0,38,0.00,,,0.00,,2013-04-27 00:11:00,
2013-04-26 20:21:00,60.0,37.0,29.50,North,0,0.0,0.0,43,0.00,,,0.00,,2013-04-27 00:21:00,
2013-04-26 20:32:00,60.0,36.0,29.50,WNW,290,4.0,6.0,41,0.00,,,0.00,,2013-04-27 00:32:00,
2013-04-26 20:42:00,60.0,36.0,29.50,WNW,290,4.0,6.0,41,0.00,,,0.00,,2013-04-27 00:42:00,
2013-04-26 20:51:00,60.0,36.0,29.50,WNW,290,4.0,6.0,41,0.00,,,0.00,,2013-04-27 00:51:00,
2013-04-26 21:01:00,60.0,36.0,29.50,WNW,290,4.0,6.0,41,0.00,,,0.00,,2013-04-27 01:01:00,
2013-04-26 21:11:00,59.0,36.0,29.41,North,0,0.0,5.0,42,0.00,,,0.00,,2013-04-27 01:11:00,
2013-04-26 21:21:00,59.0,36.0,29.41,West,281,3.0,5.0,42,0.00,,,0.00,,2013-04-27 01:21:00,
2013-04-26 21:32:00,59.0,36.0,29.41,North,0,0.0,5.0,42,0.00,,,0.00,,2013-04-27 01:32:00,
2013-04-26 21:42:00,59.0,36.0,29.41,North,0,0.0,5.0,42,0.00,,,0.00,,2013-04-27 01:42:00,
2013-04-26 21:52:00,59.0,36.0,29.41,North,0,0.0,5.0,42,0.00,,,0.00,,2013-04-27 01:52:00,
2013-04-26 22:02:00,59.0,36.0,29.41,North,0,0.0,5.0,42,0.00,,,0.00,,2013-04-27 02:02:00,
2013-04-26 22:22:00,57.0,41.0,29.44,North,0,0.0,0.0,55,0.00,,,0.00,,2013-04-27 02:22:00,
2013-04-26 22:32:00,56.0,42.0,29.44,North,0,0.0,0.0,59,0.00,,,0.00,,2013-04-27 02:32:00,
2013-04-26 22:42:00,56.0,42.0,29.44,North,0,0.0,0.0,59,0.00,,,0.00,,2013-04-27 02:42:00,
2013-04-26 22:52:00,56.0,40.0,29.44,North,0,0.0,0.0,55,0.00,,,0.00,,2013-04-27 02:52:00,
2013-04-26 23:02:00,55.0,44.0,29.50,North,0,0.0,0.0,67,0.00,,,0.00,,2013-04-27 03:02:00,
2013-04-26 23:11:00,55.0,44.0,29.50,North,0,0.0,0.0,67,0.00,,,0.00,,2013-04-27 03:11:00,
2013-04-26 23:22:00,54.0,43.0,29.50,North,0,0.0,0.0,66,0.00,,,0.00,,2013-04-27 03:22:00,
2013-04-26 23:33:00,55.0,44.0,29.50,North,0,0.0,0.0,66,0.00,,,0.00,,2013-04-27 03:33:00,
2013-04-26 23:43:00,55.0,44.0,29.50,North,0,0.0,0.0,66,0.00,,,0.00,,2013-04-27 03:43:00,
2013-04-26 23:53:00,55.0,44.0,29.50,North,0,0.0,0.0,66,0.00,,,0.00,,2013-04-27 03:53:00,